Auburn, Nebraska
Current Conditions -  °F | °C
As of 4:35 AM on Saturday 22 Nov 2014 (Local Time) from KAFK Reporting Station
Haze Haze  
Wind Chill: 33°   Ceiling: 400
Heat Index: 38°   Visibility: 2mi
Dew Point: 38°   Wind: 7mph
Humidity: 99%   Direction: 220°SW
Pressure: 29.93"   Gusts: NA
Location:  40.39°N, 95.84°W
Report Text: KAFK 221035Z AUTO 22006KT 2SM BR OVC004 03/03 A2993 RMK AO2 T00330031
Loading
Personal Weather Stations






























Interactive Weather Map New forecast layout! Learn more

10-Day Weather Forecast

Advertisements
Track Severe Weather on mobile